Time;durP1;ratioP1;P1;durP2;ratioP2;P2;SDS_P1;SDS_P2;PMS_P1;PMS_P2;Temp;Humidity;BMP_temperature;BMP_pressure;BME280_temperature;BME280_humidity;BME280_pressure;Samples;Min_cycle;Max_cycle;Signal;HPM_P1;HPM_P2
2022/06/29 04:18:16;;;;;;;16.20;11.05;;;;;;;20.04;69.68;101411.94;5097456;27;1434263;-85
2022/06/29 04:23:26;;;;;;;16.17;11.88;;;;;;;20.02;69.15;101397.28;5107070;28;20088;-88
2022/06/29 04:25:51;;;;;;;13.63;12.15;;;;;;;19.89;69.12;101388.66;5114241;28;20514;-84
2022/06/29 04:28:17;;;;;;;16.17;12.88;;;;;;;19.77;70.16;101393.91;5105644;28;20020;-84
2022/06/29 04:30:42;;;;;;;18.05;11.95;;;;;;;20.14;70.99;101377.94;5090315;28;20484;-88
2022/06/29 04:33:08;;;;;;;17.05;12.05;;;;;;;20.92;68.01;101388.41;5091276;28;20449;-89
2022/06/29 04:35:34;;;;;;;13.70;11.75;;;;;;;21.55;65.16;101387.75;5110516;28;20054;-92
2022/06/29 04:38:00;;;;;;;16.33;12.30;;;;;;;21.73;63.52;101391.50;5122911;28;20408;-87
2022/06/29 04:40:25;;;;;;;14.65;13.13;;;;;;;21.45;64.54;101388.53;5095464;28;20499;-85
2022/06/29 04:42:51;;;;;;;17.13;12.80;;;;;;;21.25;65.85;101391.94;5112121;28;20023;-85
2022/06/29 04:48:01;;;;;;;15.55;13.70;;;;;;;21.53;64.15;101368.59;5110828;28;20441;-89
2022/06/29 04:50:27;;;;;;;36.45;24.75;;;;;;;21.36;64.87;101380.56;5086195;28;20027;-87
2022/06/29 04:52:53;;;;;;;17.48;14.93;;;;;;;21.23;66.38;101391.19;5103854;28;20494;-88
2022/06/29 04:55:18;;;;;;;16.75;14.60;;;;;;;21.11;65.99;101376.41;5107868;28;20084;-87
2022/06/29 04:57:44;;;;;;;18.10;14.60;;;;;;;21.04;66.34;101372.59;5100136;28;20035;-84
2022/06/29 05:00:10;;;;;;;19.15;14.85;;;;;;;21.08;66.90;101369.63;5092182;28;20039;-89
2022/06/29 05:02:36;;;;;;;17.00;14.18;;;;;;;21.34;66.09;101338.56;5110771;28;20023;-88
2022/06/29 05:05:02;;;;;;;17.17;12.85;;;;;;;22.42;63.14;101375.94;5094313;28;20151;-87
2022/06/29 05:07:27;;;;;;;16.80;14.05;;;;;;;22.67;62.27;101377.22;5112033;27;20039;-88
2022/06/29 05:09:53;;;;;;;16.75;14.32;;;;;;;22.76;61.86;101367.69;5113824;28;20024;-88
2022/06/29 05:12:19;;;;;;;15.90;13.02;;;;;;;23.02;61.33;101358.31;5093742;28;20032;-85
2022/06/29 05:14:45;;;;;;;47.55;33.35;;;;;;;23.07;61.03;101360.53;5112182;28;22128;-89
2022/06/29 05:17:10;;;;;;;19.02;15.43;;;;;;;22.69;61.23;101340.16;5085092;28;20078;-87
2022/06/29 05:19:36;;;;;;;19.67;14.30;;;;;;;22.72;62.54;101366.28;5110854;28;20088;-87
2022/06/29 05:22:01;;;;;;;29.90;24.98;;;;;;;23.42;60.03;101355.53;5092462;28;20058;-88
2022/06/29 05:24:27;;;;;;;22.75;18.60;;;;;;;23.63;60.49;101363.31;5110646;28;20405;-88
2022/06/29 05:26:52;;;;;;;22.38;17.20;;;;;;;23.85;59.70;101361.31;5104708;28;20775;-87
2022/06/29 05:29:18;;;;;;;26.30;20.15;;;;;;;24.22;58.33;101364.81;5101740;28;20066;-85
2022/06/29 05:31:44;;;;;;;23.63;18.20;;;;;;;24.08;59.37;101378.47;5081592;28;20035;-92
2022/06/29 05:34:11;;;;;;;20.77;15.75;;;;;;;24.72;57.29;101390.88;5101291;28;20185;-93
2022/06/29 05:36:37;;;;;;;21.25;14.90;;;;;;;24.72;55.67;101390.88;5108722;28;20032;-92
2022/06/29 05:39:02;;;;;;;16.80;15.00;;;;;;;24.40;57.19;101356.13;5090180;28;20027;-91
2022/06/29 05:41:28;;;;;;;21.08;14.27;;;;;;;24.39;57.48;101375.63;5071850;28;20048;-90
2022/06/29 05:43:54;;;;;;;18.65;14.30;;;;;;;24.10;58.67;101365.97;5058362;28;20135;-88
2022/06/29 05:46:22;;;;;;;20.88;15.30;;;;;;;23.76;59.97;101368.28;5096872;28;20097;-89
2022/06/29 05:48:47;;;;;;;15.63;13.38;;;;;;;24.02;59.78;101371.13;5095800;28;20096;-86
2022/06/29 05:51:13;;;;;;;16.40;14.70;;;;;;;23.96;59.31;101374.34;5077581;28;20475;-82
2022/06/29 05:53:38;;;;;;;23.85;15.50;;;;;;;23.94;59.95;101376.31;5079664;28;20062;-85
2022/06/29 05:56:04;;;;;;;16.27;14.27;;;;;;;23.96;58.57;101395.50;5087033;28;20039;-85
2022/06/29 05:58:29;;;;;;;15.60;13.95;;;;;;;23.51;60.46;101390.00;5080130;28;20031;-86
2022/06/29 06:00:55;;;;;;;19.33;14.57;;;;;;;23.78;60.50;101382.16;5069359;28;20050;-89
2022/06/29 06:03:20;;;;;;;18.48;14.45;;;;;;;24.05;59.61;101381.41;5095635;28;20591;-84
2022/06/29 06:05:46;;;;;;;18.67;13.15;;;;;;;23.96;60.03;101387.56;5096312;28;20039;-85
2022/06/29 06:08:13;;;;;;;15.30;13.70;;;;;;;24.06;59.01;101391.00;5099292;28;20115;-87
2022/06/29 06:10:39;;;;;;;16.20;14.45;;;;;;;23.66;59.73;101388.59;5090896;28;20065;-90
2022/06/29 06:13:05;;;;;;;15.98;13.40;;;;;;;23.84;60.43;101378.13;5084897;28;20645;-84
2022/06/29 06:15:32;;;;;;;16.20;13.18;;;;;;;24.05;59.80;101397.28;5080352;28;20447;-86
2022/06/29 06:17:58;;;;;;;16.17;14.27;;;;;;;23.83;60.48;101389.69;5096304;28;20402;-85
2022/06/29 06:20:23;;;;;;;17.67;14.50;;;;;;;23.98;60.30;101383.78;5098291;28;20031;-89
2022/06/29 06:22:49;;;;;;;20.88;18.63;;;;;;;24.40;59.05;101387.88;5094822;28;20157;-84
2022/06/29 06:25:14;;;;;;;15.55;13.95;;;;;;;24.16;59.45;101389.16;5065400;28;20032;-85
2022/06/29 06:27:41;;;;;;;16.95;14.45;;;;;;;23.82;60.25;101383.56;5085347;28;20414;-86
2022/06/29 06:30:06;;;;;;;16.30;13.90;;;;;;;23.92;60.64;101400.25;5080928;28;20043;-93
2022/06/29 06:32:32;;;;;;;16.02;14.30;;;;;;;23.89;60.34;101397.03;5079135;28;20114;-85
2022/06/29 06:34:57;;;;;;;17.15;12.85;;;;;;;24.29;59.44;101387.03;5084647;28;20032;-84
2022/06/29 06:37:23;;;;;;;16.52;13.82;;;;;;;24.72;59.29;101392.69;5084958;28;20020;-85
2022/06/29 06:42:32;;;;;;;17.50;14.48;;;;;;;24.43;58.99;101383.09;5088215;28;20042;-93
2022/06/29 06:44:58;;;;;;;19.20;14.32;;;;;;;24.51;59.83;101363.88;5098435;28;20031;-89
2022/06/29 06:47:23;;;;;;;17.48;13.88;;;;;;;24.86;59.35;101387.72;5096236;28;20054;-89
2022/06/29 06:49:49;;;;;;;23.33;14.95;;;;;;;24.89;58.38;101366.28;5089712;28;20066;-86
2022/06/29 06:52:17;;;;;;;22.95;15.32;;;;;;;24.95;56.44;101361.34;5094528;28;20791;-87
2022/06/29 06:54:44;;;;;;;18.02;14.48;;;;;;;25.10;54.78;101366.00;5096750;28;20028;-86
2022/06/29 06:57:11;;;;;;;19.75;14.60;;;;;;;25.11;56.08;101362.38;5065547;28;20028;-94
2022/06/29 06:59:37;;;;;;;12.88;11.63;;;;;;;25.28;54.37;101381.06;5097412;28;20088;-88
2022/06/29 07:02:02;;;;;;;19.45;14.38;;;;;;;25.40;56.16;101383.31;5102924;28;20036;-89
2022/06/29 07:04:28;;;;;;;18.52;13.95;;;;;;;25.56;56.40;101395.00;5090316;28;20099;-92
2022/06/29 07:06:53;;;;;;;17.92;15.23;;;;;;;25.65;55.02;101396.72;5056375;28;20101;-93
2022/06/29 07:09:19;;;;;;;19.42;14.23;;;;;;;25.81;54.38;101388.94;5097986;28;20036;-91
2022/06/29 07:11:44;;;;;;;19.08;13.70;;;;;;;25.86;54.50;101381.38;5100792;28;20031;-88
2022/06/29 07:14:10;;;;;;;15.23;13.65;;;;;;;25.93;53.71;101392.16;5095077;28;20093;-92
2022/06/29 07:16:35;;;;;;;19.55;13.40;;;;;;;25.90;54.44;101373.91;5080020;28;20119;-88
2022/06/29 07:19:01;;;;;;;15.38;13.35;;;;;;;26.17;53.78;101386.16;5090520;28;20035;-88
2022/06/29 07:21:26;;;;;;;16.42;14.05;;;;;;;26.19;54.54;101395.63;5099227;28;20524;-90
2022/06/29 07:23:52;;;;;;;15.80;13.20;;;;;;;26.26;53.06;101385.22;5087904;28;20019;-88
2022/06/29 07:26:18;;;;;;;15.93;13.93;;;;;;;26.41;54.04;101388.13;5101734;28;20553;-85
2022/06/29 07:28:43;;;;;;;17.60;13.77;;;;;;;26.45;53.78;101385.00;5096191;28;20027;-89
2022/06/29 07:31:09;;;;;;;18.58;15.23;;;;;;;26.54;53.71;101389.31;5082538;28;20431;-86
2022/06/29 07:33:34;;;;;;;21.45;14.00;;;;;;;26.59;52.50;101402.13;5096459;28;20035;-95
2022/06/29 07:36:00;;;;;;;23.58;16.13;;;;;;;26.69;52.80;101388.72;5087749;28;20027;-86
2022/06/29 07:38:26;;;;;;;16.67;14.88;;;;;;;26.87;50.88;101387.59;5095568;28;20036;-87
2022/06/29 07:40:51;;;;;;;18.05;14.77;;;;;;;27.01;51.74;101393.25;5083499;28;20028;-88
2022/06/29 07:43:17;;;;;;;17.52;14.23;;;;;;;27.11;52.00;101391.31;5094437;28;20404;-86
2022/06/29 07:45:43;;;;;;;18.45;14.73;;;;;;;27.23;52.00;101367.91;5094696;28;20039;-89
2022/06/29 07:48:08;;;;;;;18.73;15.05;;;;;;;27.41;51.23;101381.88;5087608;28;20094;-88
2022/06/29 07:50:34;;;;;;;17.20;15.27;;;;;;;27.31;51.83;101371.41;5093935;28;20043;-90
2022/06/29 07:53:00;;;;;;;17.38;14.93;;;;;;;27.19;51.31;101354.16;5095284;28;20834;-89
2022/06/29 07:55:25;;;;;;;17.13;14.85;;;;;;;27.39;51.86;101362.59;5084696;28;20411;-86
2022/06/29 07:57:51;;;;;;;25.45;17.02;;;;;;;27.45;50.55;101356.63;5068591;28;20036;-88
2022/06/29 08:00:16;;;;;;;21.10;16.35;;;;;;;27.62;50.63;101366.22;5094550;28;20031;-91
2022/06/29 08:02:42;;;;;;;24.13;16.52;;;;;;;27.72;50.87;101366.91;5085137;28;20178;-91
2022/06/29 08:05:08;;;;;;;114.63;86.45;;;;;;;27.86;50.50;101354.75;5078660;28;20112;-86
2022/06/29 08:07:33;;;;;;;30.13;20.35;;;;;;;28.20;48.85;101366.94;5081292;28;20093;-85
2022/06/29 08:09:59;;;;;;;19.15;16.33;;;;;;;28.28;49.04;101354.47;5097000;28;20135;-87
2022/06/29 08:12:24;;;;;;;21.40;16.67;;;;;;;28.44;47.80;101355.41;5072146;28;20032;-88
2022/06/29 08:14:50;;;;;;;20.30;16.67;;;;;;;28.54;48.22;101358.69;5105037;28;20031;-92
2022/06/29 08:17:15;;;;;;;25.00;20.52;;;;;;;28.58;47.96;101362.66;5065538;28;20087;-87
2022/06/29 08:19:41;;;;;;;21.35;17.23;;;;;;;28.67;48.23;101358.94;5096301;28;20123;-88
2022/06/29 08:22:06;;;;;;;28.02;17.98;;;;;;;28.68;46.99;101357.09;5081643;28;20071;-90
2022/06/29 08:24:32;;;;;;;23.60;17.67;;;;;;;28.67;46.34;101356.28;5101703;28;20503;-94
2022/06/29 08:26:57;;;;;;;19.38;17.20;;;;;;;28.77;45.36;101354.22;5097911;28;20087;-91
2022/06/29 08:29:23;;;;;;;25.70;18.70;;;;;;;28.63;45.77;101335.50;5109413;28;20024;-92
2022/06/29 08:31:48;;;;;;;19.98;18.00;;;;;;;28.85;45.55;101348.84;5101693;28;20759;-90
2022/06/29 08:34:20;;;;;;;23.27;17.50;;;;;;;29.03;45.23;101351.25;5092089;28;20088;-87
2022/06/29 08:36:45;;;;;;;21.95;17.42;;;;;;;29.09;46.12;101350.50;5092477;28;20480;-87
2022/06/29 08:39:11;;;;;;;20.80;17.55;;;;;;;29.23;44.36;101348.91;5093655;28;20032;-87
2022/06/29 08:41:38;;;;;;;23.63;20.13;;;;;;;29.31;44.58;101348.84;5072671;28;20062;-85
2022/06/29 08:44:03;;;;;;;43.58;38.88;;;;;;;29.40;44.49;101350.44;5078298;28;20028;-85
2022/06/29 08:46:29;;;;;;;30.25;26.17;;;;;;;29.62;44.21;101340.75;5088901;28;20042;-91
2022/06/29 08:48:55;;;;;;;21.00;18.80;;;;;;;29.88;43.92;101353.63;5078267;28;20031;-86
2022/06/29 08:51:22;;;;;;;22.42;18.48;;;;;;;29.91;44.24;101331.94;5062522;28;20031;-85
2022/06/29 08:53:48;;;;;;;20.75;18.40;;;;;;;30.13;43.45;101353.38;5082953;28;20404;-87
2022/06/29 08:56:13;;;;;;;20.50;18.35;;;;;;;30.08;42.69;101339.75;5002210;28;20056;-87
2022/06/29 08:58:40;;;;;;;22.52;18.98;;;;;;;30.24;42.72;101347.56;5021824;28;20102;-85
2022/06/29 09:01:05;;;;;;;22.80;19.33;;;;;;;30.31;42.59;101350.31;5031891;28;20040;-86
2022/06/29 09:03:31;;;;;;;20.23;17.77;;;;;;;30.05;41.08;101335.59;5038237;28;20039;-85
2022/06/29 09:06:01;;;;;;;19.67;17.65;;;;;;;29.37;41.18;101324.13;5038429;28;20087;-88
2022/06/29 09:08:27;;;;;;;22.45;17.48;;;;;;;29.83;40.72;101339.19;5008128;28;20395;-87
2022/06/29 09:10:52;;;;;;;19.65;16.38;;;;;;;30.05;39.37;101342.78;5039767;28;20064;-87
2022/06/29 09:13:22;;;;;;;17.92;15.20;;;;;;;29.97;38.47;101333.00;5035653;28;20124;-88
2022/06/29 09:15:47;;;;;;;17.55;15.63;;;;;;;30.17;39.10;101335.97;5039253;28;20502;-88
2022/06/29 09:18:32;;;;;;;19.08;16.08;;;;;;;30.54;39.51;101348.31;5038430;28;20048;-85
2022/06/29 09:21:04;;;;;;;17.17;14.90;;;;;;;30.49;38.55;101340.06;5020659;28;20052;-87
2022/06/29 09:23:30;;;;;;;14.02;12.65;;;;;;;30.86;37.52;101341.69;5003588;28;20514;-84
2022/06/29 09:25:56;;;;;;;14.68;13.18;;;;;;;31.06;36.43;101321.31;5021501;28;20033;-88
2022/06/29 09:28:25;;;;;;;21.33;14.07;;;;;;;31.27;36.71;101339.25;5022777;28;20029;-89
2022/06/29 09:30:55;;;;;;;16.17;13.18;;;;;;;31.31;35.83;101319.09;5043539;28;20478;-90
2022/06/29 09:33:21;;;;;;;14.13;12.82;;;;;;;31.12;35.19;101320.56;5025609;28;20547;-88
2022/06/29 09:36:02;;;;;;;15.93;12.70;;;;;;;31.14;35.70;101325.72;5019139;28;20091;-85
2022/06/29 09:38:28;;;;;;;14.40;11.15;;;;;;;31.30;34.05;101316.63;5035584;28;20138;-85
2022/06/29 09:41:01;;;;;;;37.00;33.08;;;;;;;31.23;33.43;101339.81;5021084;28;20677;-88
2022/06/29 09:43:27;;;;;;;14.85;11.65;;;;;;;31.44;32.14;101322.88;5020395;28;20028;-83
2022/06/29 09:45:54;;;;;;;17.17;15.40;;;;;;;31.60;35.11;101328.78;5037648;28;20415;-83
2022/06/29 09:48:21;;;;;;;17.65;15.80;;;;;;;31.73;36.30;101337.88;5043616;28;20497;-88
2022/06/29 09:50:49;;;;;;;20.33;17.05;;;;;;;31.69;37.16;101322.25;5007381;28;20476;-85
2022/06/29 09:53:15;;;;;;;19.23;17.02;;;;;;;31.64;37.21;101305.13;5007236;28;20052;-84
2022/06/29 09:55:40;;;;;;;22.83;17.75;;;;;;;32.07;37.68;101324.53;5011296;28;20087;-85
2022/06/29 09:58:06;;;;;;;20.90;18.75;;;;;;;32.21;37.65;101310.16;5040950;28;20117;-88
2022/06/29 10:03:15;;;;;;;17.67;15.77;;;;;;;32.43;35.66;101313.53;5046456;28;20040;-86
2022/06/29 10:05:59;;;;;;;16.67;13.80;;;;;;;32.28;33.92;101298.66;5058952;28;20029;-84
2022/06/29 10:08:26;;;;;;;20.42;15.98;;;;;;;32.54;32.42;101309.44;5046250;28;20032;-84
2022/06/29 10:10:56;;;;;;;15.02;11.68;;;;;;;32.53;31.90;101307.81;5060149;28;20111;-84
2022/06/29 10:13:42;;;;;;;12.70;10.32;;;;;;;32.46;31.44;101299.78;5046420;28;20580;-83
2022/06/29 10:16:14;;;;;;;11.05;9.98;;;;;;;32.77;31.23;101312.59;5054522;28;20039;-87
2022/06/29 10:19:29;;;;;;;12.35;10.70;;;;;;;32.94;31.98;101304.16;5060171;28;20581;-87
2022/06/29 10:21:56;;;;;;;14.13;11.10;;;;;;;32.76;32.38;101297.56;5015455;28;20033;-91
2022/06/29 10:24:21;;;;;;;13.43;12.02;;;;;;;32.90;32.39;101289.53;5047850;28;20044;-89
2022/06/29 10:26:47;;;;;;;15.82;11.43;;;;;;;33.21;32.77;101297.78;5039899;28;20024;-83
2022/06/29 10:29:18;;;;;;;13.55;11.30;;;;;;;33.00;30.63;101281.91;5055130;28;20068;-89
2022/06/29 10:32:00;;;;;;;16.75;12.13;;;;;;;33.20;31.60;101282.72;5055428;28;20017;-93
2022/06/29 10:34:28;;;;;;;22.77;12.23;;;;;;;33.13;31.62;101292.63;5067415;28;20028;-91
2022/06/29 10:37:07;;;;;;;14.55;11.70;;;;;;;33.19;30.40;101283.75;5053383;28;20028;-87
2022/06/29 10:39:35;;;;;;;14.43;11.18;;;;;;;33.36;31.05;101282.31;5049327;28;20029;-90
2022/06/29 10:45:15;;;;;;;13.75;11.85;;;;;;;33.45;30.96;101276.75;5068444;28;20051;-94
2022/06/29 10:47:45;;;;;;;17.17;12.15;;;;;;;33.85;31.60;101270.22;5070957;28;20029;-94
2022/06/29 10:50:13;;;;;;;13.70;11.43;;;;;;;34.05;30.48;101274.69;5058877;28;20089;-86
2022/06/29 10:52:39;;;;;;;13.43;11.98;;;;;;;34.03;30.71;101255.31;5054091;28;20108;-86
2022/06/29 10:55:05;;;;;;;13.48;12.07;;;;;;;34.18;30.17;101258.50;5053643;28;20036;-86
2022/06/29 10:57:34;;;;;;;15.63;12.23;;;;;;;34.28;29.54;101264.22;5054440;28;20033;-86
2022/06/29 11:00:04;;;;;;;13.80;12.27;;;;;;;34.36;29.43;101257.78;5038573;28;20032;-85
2022/06/29 11:02:29;;;;;;;19.10;13.15;;;;;;;34.16;30.42;101233.75;5017178;28;21665;-83
2022/06/29 11:04:55;;;;;;;17.10;12.50;;;;;;;34.56;30.03;101250.44;5057129;28;20103;-85
2022/06/29 11:12:52;;;;;;;14.30;12.80;;;;;;;34.50;29.49;101249.44;5053872;28;20113;-84
2022/06/29 11:15:47;;;;;;;16.42;13.25;;;;;;;34.60;29.00;101242.75;5054061;28;20048;-88
2022/06/29 11:18:13;;;;;;;16.80;13.00;;;;;;;34.92;29.43;101236.31;5043165;28;20056;-90
2022/06/29 11:20:39;;;;;;;14.13;12.70;;;;;;;35.00;28.61;101233.34;5062494;28;20021;-84
2022/06/29 11:23:14;;;;;;;15.82;12.43;;;;;;;35.20;28.85;101240.38;5047332;28;20055;-86
2022/06/29 11:25:43;;;;;;;16.67;13.00;;;;;;;35.24;28.56;101234.34;5060459;28;20037;-86
2022/06/29 11:28:08;;;;;;;17.33;13.43;;;;;;;35.30;29.05;101244.22;5060120;28;20044;-85
2022/06/29 11:30:34;;;;;;;17.35;13.02;;;;;;;35.22;28.79;101230.25;5024528;28;20024;-88
2022/06/29 11:33:06;;;;;;;18.40;13.02;;;;;;;35.23;28.27;101226.50;5028991;28;21793;-87
2022/06/29 11:35:32;;;;;;;14.75;12.80;;;;;;;35.42;27.82;101233.56;5038871;28;20079;-89
2022/06/29 11:38:01;;;;;;;15.45;12.80;;;;;;;35.39;28.22;101217.84;5054837;28;20357;-88
2022/06/29 11:40:37;;;;;;;14.95;12.38;;;;;;;35.41;27.61;101236.50;5060275;28;20062;-92
2022/06/29 11:43:05;;;;;;;13.65;12.25;;;;;;;35.44;27.37;101230.66;5059443;28;20032;-91
2022/06/29 11:45:47;;;;;;;15.30;12.68;;;;;;;35.54;27.94;101222.88;5058837;28;20029;-85
2022/06/29 11:48:13;;;;;;;16.10;12.40;;;;;;;35.70;27.56;101229.53;5050752;28;20028;-87
2022/06/29 11:51:10;;;;;;;13.65;11.98;;;;;;;35.68;27.33;101210.06;5058835;28;20033;-84
2022/06/29 11:53:45;;;;;;;16.48;12.27;;;;;;;35.81;26.79;101212.59;5051397;28;20087;-83
2022/06/29 11:56:13;;;;;;;15.90;13.13;;;;;;;36.05;27.66;101216.22;5051101;28;20036;-82
2022/06/29 11:58:44;;;;;;;14.45;12.80;;;;;;;36.10;27.92;101210.97;5052966;28;20060;-85
2022/06/29 12:01:11;;;;;;;16.20;12.43;;;;;;;35.99;26.26;101201.81;5051023;28;20757;-85
2022/06/29 12:03:37;;;;;;;16.42;11.27;;;;;;;36.07;25.80;101193.38;5019460;28;20056;-83
2022/06/29 12:06:02;;;;;;;17.73;12.10;;;;;;;36.33;26.45;101191.34;5034449;28;20693;-83
2022/06/29 12:08:29;;;;;;;16.88;10.52;;;;;;;36.29;24.80;101193.69;5059941;28;20132;-89
2022/06/29 12:10:56;;;;;;;16.48;11.93;;;;;;;36.36;25.19;101193.59;5048935;28;20544;-90
2022/06/29 12:13:21;;;;;;;17.38;11.27;;;;;;;36.41;25.23;101196.44;5031146;28;20082;-87
2022/06/29 12:15:47;;;;;;;16.17;11.50;;;;;;;36.37;25.78;101177.19;5045546;28;20029;-87
2022/06/29 12:18:13;;;;;;;13.52;11.57;;;;;;;36.49;26.04;101174.53;5049898;28;20049;-84
2022/06/29 12:20:39;;;;;;;11.60;9.80;;;;;;;36.48;24.36;101162.13;5022623;28;20025;-87
2022/06/29 12:23:04;;;;;;;14.10;10.10;;;;;;;36.57;24.33;101160.69;5030601;28;20028;-83
2022/06/29 12:25:30;;;;;;;12.82;10.27;;;;;;;36.64;24.26;101158.72;5032071;28;20025;-90
2022/06/29 12:27:55;;;;;;;10.93;9.52;;;;;;;36.53;24.08;101162.22;5048742;28;20029;-87
2022/06/29 12:30:21;;;;;;;13.77;9.27;;;;;;;36.60;23.28;101168.34;5060421;28;20052;-84
2022/06/29 12:32:46;;;;;;;10.23;8.30;;;;;;;36.36;22.63;101159.41;5052539;28;20390;-85
2022/06/29 12:35:12;;;;;;;12.15;8.40;;;;;;;36.23;22.20;101153.38;5056881;28;20052;-85
2022/06/29 12:37:37;;;;;;;13.20;9.32;;;;;;;36.11;23.26;101156.06;5048422;28;20108;-85
2022/06/29 12:40:04;;;;;;;15.25;9.55;;;;;;;36.24;23.80;101163.09;5054133;28;20086;-89
2022/06/29 12:42:29;;;;;;;15.02;8.73;;;;;;;36.34;23.39;101163.34;5052749;28;20042;-84
2022/06/29 12:44:55;;;;;;;14.10;9.00;;;;;;;36.38;23.93;101157.31;5052951;28;20025;-87
2022/06/29 12:47:20;;;;;;;14.88;8.30;;;;;;;36.30;24.08;101159.50;5053006;28;20020;-86
2022/06/29 12:49:46;;;;;;;12.73;7.43;;;;;;;36.12;21.22;101150.44;5053562;28;20032;-87
2022/06/29 12:52:11;;;;;;;10.07;7.78;;;;;;;36.04;21.90;101131.09;5071014;28;20076;-88
2022/06/29 12:54:37;;;;;;;9.70;7.32;;;;;;;36.06;21.84;101129.81;5071592;28;20078;-88
2022/06/29 12:57:03;;;;;;;10.77;8.00;;;;;;;36.28;22.67;101145.41;5070683;28;20029;-86
2022/06/29 12:59:28;;;;;;;12.05;8.68;;;;;;;36.23;22.67;101142.63;5073871;28;20074;-84
2022/06/29 13:01:54;;;;;;;15.68;9.02;;;;;;;36.08;23.05;101135.78;5072200;28;20024;-90
2022/06/29 13:04:19;;;;;;;12.23;8.80;;;;;;;36.04;23.21;101139.19;5055648;28;20017;-87
2022/06/29 13:06:45;;;;;;;14.98;9.13;;;;;;;35.91;23.23;101129.44;5054632;28;20582;-85
2022/06/29 13:09:11;;;;;;;12.25;8.80;;;;;;;35.81;23.14;101134.53;5035251;28;20445;-84
2022/06/29 13:11:36;;;;;;;14.07;8.95;;;;;;;35.54;23.75;101118.75;5035325;28;20043;-84
2022/06/29 13:14:02;;;;;;;13.95;9.60;;;;;;;35.23;24.58;101100.94;5035953;28;20033;-84
2022/06/29 13:16:27;;;;;;;15.52;9.70;;;;;;;35.14;24.94;101128.34;5042578;28;20080;-86
2022/06/29 13:18:53;;;;;;;12.35;9.10;;;;;;;35.07;25.06;101125.72;5051631;28;20078;-88
2022/06/29 13:21:19;;;;;;;13.68;9.77;;;;;;;34.95;25.97;101117.59;5047121;28;20040;-89
2022/06/29 13:23:44;;;;;;;17.48;10.23;;;;;;;34.87;25.33;101112.47;5047031;28;20031;-87
2022/06/29 13:26:11;;;;;;;19.20;9.88;;;;;;;34.79;25.45;101110.91;5051619;28;20025;-87
2022/06/29 13:28:42;;;;;;;14.40;9.98;;;;;;;34.75;25.94;101119.66;5033800;28;20471;-87
2022/06/29 13:31:09;;;;;;;12.70;9.52;;;;;;;34.63;26.28;101106.13;5052809;28;20039;-90
2022/06/29 13:33:35;;;;;;;20.63;13.95;;;;;;;34.65;27.03;101114.78;5051241;28;20094;-84
2022/06/29 13:36:00;;;;;;;12.10;9.60;;;;;;;34.60;26.78;101103.88;5034362;28;20029;-85
2022/06/29 13:38:26;;;;;;;11.88;9.48;;;;;;;34.30;25.79;101062.59;5051350;28;20067;-84
2022/06/29 13:40:51;;;;;;;15.20;9.65;;;;;;;34.45;25.82;101100.72;5057943;28;20033;-83
2022/06/29 13:43:17;;;;;;;18.23;9.45;;;;;;;34.33;25.14;101095.22;5052980;28;20481;-86
2022/06/29 13:45:43;;;;;;;13.70;10.25;;;;;;;34.32;26.07;101096.28;5053213;28;20493;-84
2022/06/29 13:48:09;;;;;;;14.57;11.68;;;;;;;34.33;27.06;101094.41;5067451;28;20033;-85
2022/06/29 13:50:34;;;;;;;14.65;9.77;;;;;;;34.18;26.20;101075.94;5068605;28;20043;-86
2022/06/29 13:53:00;;;;;;;18.73;10.32;;;;;;;34.02;26.92;101071.94;5054295;28;20035;-85
2022/06/29 13:55:25;;;;;;;14.18;9.68;;;;;;;33.96;26.86;101074.66;5071256;28;20036;-84
2022/06/29 13:57:51;;;;;;;13.27;9.38;;;;;;;33.99;25.26;101066.16;5064551;28;20072;-84
2022/06/29 14:00:18;;;;;;;14.90;8.07;;;;;;;34.02;25.30;101081.81;5052909;28;20021;-84
2022/06/29 14:02:44;;;;;;;19.17;10.90;;;;;;;34.04;24.63;101069.03;5072207;28;20031;-86
2022/06/29 14:05:09;;;;;;;17.13;7.93;;;;;;;33.99;24.12;101058.94;5071426;28;20401;-86
2022/06/29 14:07:35;;;;;;;11.27;7.50;;;;;;;33.88;23.79;101065.84;5067199;28;20082;-86
2022/06/29 14:10:00;;;;;;;14.77;8.48;;;;;;;33.82;24.57;101060.47;5054691;28;20039;-86
2022/06/29 14:12:26;;;;;;;12.15;8.15;;;;;;;33.61;24.61;101043.69;5052858;28;20028;-88
2022/06/29 14:14:52;;;;;;;13.75;7.63;;;;;;;33.80;24.37;101059.88;5070806;28;20071;-84
2022/06/29 14:17:17;;;;;;;13.95;7.85;;;;;;;33.76;23.97;101062.19;5070782;28;20517;-84
2022/06/29 14:19:43;;;;;;;12.77;7.20;;;;;;;33.79;24.37;101060.91;5053038;28;20028;-86
2022/06/29 14:22:08;;;;;;;13.35;8.00;;;;;;;33.81;25.15;101059.66;5068573;28;20037;-93
2022/06/29 14:24:34;;;;;;;12.50;8.00;;;;;;;33.77;24.44;101057.63;5052430;28;20033;-91
2022/06/29 14:27:00;;;;;;;14.05;9.60;;;;;;;33.64;24.02;101048.66;5049839;28;20028;-92
2022/06/29 14:29:25;;;;;;;14.15;8.93;;;;;;;33.71;24.76;101053.94;5060792;28;20021;-93
2022/06/29 14:31:51;;;;;;;14.55;9.50;;;;;;;33.71;24.90;101053.94;5043538;28;20039;-90
2022/06/29 14:34:16;;;;;;;13.77;8.70;;;;;;;33.61;25.34;101054.44;5070926;28;20033;-87
2022/06/29 14:36:42;;;;;;;11.60;7.80;;;;;;;33.32;25.11;101014.75;5053905;28;20063;-89
2022/06/29 14:39:07;;;;;;;14.90;7.50;;;;;;;33.53;24.06;101035.94;5048430;28;20059;-87
2022/06/29 14:41:34;;;;;;;14.23;7.63;;;;;;;33.41;24.58;101026.09;5045667;28;20425;-84
2022/06/29 14:43:59;;;;;;;13.35;10.65;;;;;;;33.44;25.05;101031.88;5050482;28;20032;-85
2022/06/29 14:46:25;;;;;;;19.27;9.65;;;;;;;33.46;25.69;101026.28;5068755;28;20512;-85
2022/06/29 14:48:52;;;;;;;11.98;8.30;;;;;;;33.46;25.27;101031.66;5068099;28;20029;-85
2022/06/29 14:51:18;;;;;;;13.75;7.32;;;;;;;33.33;23.80;101013.72;5068076;28;20058;-84
2022/06/29 14:53:44;;;;;;;14.52;7.72;;;;;;;33.17;22.86;101000.84;5066602;28;20401;-86
2022/06/29 14:56:10;;;;;;;8.00;6.63;;;;;;;33.24;22.42;100998.94;5066761;28;20658;-85
2022/06/29 14:58:35;;;;;;;8.73;6.30;;;;;;;33.20;22.91;101017.31;5066825;28;20032;-84
2022/06/29 15:01:01;;;;;;;10.70;7.20;;;;;;;33.23;22.79;101022.22;5049300;28;20024;-85
2022/06/29 15:03:28;;;;;;;8.80;6.68;;;;;;;33.08;22.92;101006.44;5066742;28;20104;-85
2022/06/29 15:05:53;;;;;;;10.77;7.25;;;;;;;33.19;23.39;101015.66;5051537;28;20024;-86
2022/06/29 15:08:19;;;;;;;13.23;7.68;;;;;;;33.16;23.36;101008.06;5069626;28;20089;-85
2022/06/29 15:10:44;;;;;;;14.13;7.50;;;;;;;33.15;24.69;101009.09;5068441;28;20024;-85
2022/06/29 15:13:10;;;;;;;12.88;7.35;;;;;;;33.09;24.84;101007.25;5052062;28;20117;-86
2022/06/29 15:15:35;;;;;;;14.77;8.05;;;;;;;33.08;25.38;101003.75;5051396;28;20048;-85
2022/06/29 15:18:01;;;;;;;12.30;8.00;;;;;;;33.10;25.46;101008.91;5051259;28;20532;-86
2022/06/29 15:20:26;;;;;;;13.65;8.20;;;;;;;33.10;25.94;101007.03;5053118;28;20033;-85
2022/06/29 15:22:52;;;;;;;12.38;8.10;;;;;;;33.03;26.39;101005.44;5053559;28;20117;-84
2022/06/29 15:25:17;;;;;;;11.90;8.20;;;;;;;32.85;25.78;100990.06;5053548;28;20048;-85
2022/06/29 15:27:43;;;;;;;20.60;8.32;;;;;;;32.88;26.07;100988.81;5069971;28;20032;-85
2022/06/29 15:30:09;;;;;;;12.35;8.20;;;;;;;32.84;25.75;100990.25;5069944;28;20031;-85
2022/06/29 15:32:34;;;;;;;14.57;8.25;;;;;;;32.89;26.22;101002.00;5036584;28;20366;-85
2022/06/29 15:40:29;;;;;;;10.00;8.15;;;;;;;32.85;25.08;100989.25;5055978;28;20420;-85
2022/06/29 15:42:55;;;;;;;12.55;8.63;;;;;;;32.75;25.12;100982.44;5070024;28;20028;-85
2022/06/29 15:45:20;;;;;;;17.38;9.45;;;;;;;32.70;25.55;100992.97;5053374;28;20035;-85
2022/06/29 15:47:46;;;;;;;12.15;8.73;;;;;;;32.63;25.94;100986.81;5053073;28;21019;-85
2022/06/29 15:50:11;;;;;;;13.18;8.80;;;;;;;32.72;26.25;100995.44;5069053;28;20024;-85
2022/06/29 15:52:37;;;;;;;13.60;9.20;;;;;;;32.73;27.05;100991.72;5069622;28;20083;-85